createdAt,value
2017-02-26T13:55:15.619Z,1007.08
2017-02-26T13:56:24.523Z,1007.06
2017-02-26T13:57:33.412Z,1007.03
2017-02-26T13:58:42.286Z,1006.99
2017-02-26T13:59:51.181Z,1007.03
2017-02-26T14:01:00.067Z,1007.05
2017-02-26T14:02:09.094Z,1007.04
2017-02-26T14:03:17.979Z,1007.07
2017-02-26T14:04:26.894Z,1007.07
2017-02-26T14:05:35.796Z,1007.03
2017-02-26T14:06:44.686Z,1007.02
2017-02-26T14:07:53.563Z,1007
2017-02-26T14:09:02.449Z,1007.02
2017-02-26T14:10:11.372Z,1006.93
2017-02-26T14:11:20.260Z,1006.99
2017-02-26T14:12:29.147Z,1006.95
2017-02-26T14:13:38.038Z,1006.98
2017-02-26T14:14:46.953Z,1006.92
2017-02-26T14:15:55.875Z,1006.98
2017-02-26T14:17:04.762Z,1006.96
2017-02-26T14:18:13.667Z,1007.03
2017-02-26T14:19:22.549Z,1006.99
2017-02-26T14:20:31.466Z,1007.02
2017-02-26T14:21:40.353Z,1007
2017-02-26T14:22:49.243Z,1006.96
2017-02-26T14:23:58.142Z,1006.91
2017-02-26T14:25:07.031Z,1006.91
2017-02-26T14:26:15.919Z,1006.92
2017-02-26T14:27:24.839Z,1006.87
2017-02-26T14:28:33.734Z,1006.88
2017-02-26T14:29:42.657Z,1006.89
2017-02-26T14:30:51.548Z,1006.94
2017-02-26T14:32:00.455Z,1006.96
2017-02-26T14:33:09.347Z,1006.9
2017-02-26T14:34:18.241Z,1006.94
2017-02-26T14:35:27.143Z,1006.9
2017-02-26T14:36:36.047Z,1006.95
2017-02-26T14:37:44.969Z,1007
2017-02-26T14:38:54.271Z,1006.97
2017-02-26T14:40:03.200Z,1006.96
2017-02-26T14:41:12.106Z,1006.96
2017-02-26T14:42:22.316Z,1007
2017-02-26T14:43:31.661Z,1007.01
2017-02-26T14:44:40.565Z,1007
2017-02-26T14:45:49.467Z,1006.97
2017-02-26T14:46:58.354Z,1006.99
2017-02-26T14:48:07.394Z,1006.93
2017-02-26T14:49:16.307Z,1006.96
2017-02-26T14:50:25.206Z,1006.94
2017-02-26T14:51:34.098Z,1007
2017-02-26T14:52:44.457Z,1006.96
2017-02-26T14:53:53.566Z,1006.97
2017-02-26T14:55:03.644Z,1006.95
2017-02-26T14:56:14.237Z,1007
2017-02-26T14:57:23.339Z,1006.95
2017-02-26T14:58:32.219Z,1006.96
2017-02-26T14:59:41.113Z,1007.02
2017-02-26T15:00:50.023Z,1006.94
2017-02-26T15:01:58.922Z,1006.95
2017-02-26T15:03:07.839Z,1006.88
2017-02-26T15:04:16.738Z,1006.9
2017-02-26T15:05:25.664Z,1006.88
2017-02-26T15:06:34.569Z,1006.99
2017-02-26T15:07:43.481Z,1006.92
2017-02-26T15:08:52.370Z,1006.89
2017-02-26T15:10:01.273Z,1006.89
2017-02-26T15:11:10.167Z,1006.89
2017-02-26T15:12:19.055Z,1006.94
2017-02-26T15:13:27.942Z,1006.95
2017-02-26T15:14:36.829Z,1006.95
2017-02-26T15:15:45.731Z,1006.96
2017-02-26T15:16:54.629Z,1006.99
2017-02-26T15:18:03.519Z,1006.98
2017-02-26T15:19:12.419Z,1006.96
2017-02-26T15:20:21.339Z,1006.93
2017-02-26T15:21:30.284Z,1006.89
2017-02-26T15:22:39.217Z,1006.92
2017-02-26T15:23:48.118Z,1006.94
2017-02-26T15:24:57.418Z,1006.92
2017-02-26T15:26:06.319Z,1006.87
2017-02-26T15:27:15.229Z,1006.9
2017-02-26T15:28:24.120Z,1006.91
2017-02-26T15:29:33.001Z,1006.86
2017-02-26T15:30:41.879Z,1006.9
2017-02-26T15:31:50.760Z,1006.92
2017-02-26T15:32:59.649Z,1006.91
2017-02-26T15:34:08.537Z,1006.91
2017-02-26T15:35:17.467Z,1006.91
2017-02-26T15:36:26.361Z,1006.92
2017-02-26T15:37:35.258Z,1006.9
2017-02-26T15:38:44.394Z,1006.92
2017-02-26T15:39:53.310Z,1006.92
2017-02-26T15:41:02.214Z,1006.97
2017-02-26T15:42:11.122Z,1006.95
2017-02-26T15:43:20.027Z,1006.96
2017-02-26T15:44:28.913Z,1006.95
2017-02-26T15:45:37.811Z,1006.98
2017-02-26T15:46:46.719Z,1006.94
2017-02-26T15:47:55.615Z,1006.96
2017-02-26T15:49:04.562Z,1006.97
2017-02-26T15:50:13.493Z,1006.97
2017-02-26T15:51:23.496Z,1006.98
2017-02-26T15:52:32.423Z,1006.98
2017-02-26T15:53:41.370Z,1006.97
2017-02-26T15:54:50.326Z,1006.98
2017-02-26T15:55:59.548Z,1006.92
2017-02-26T15:57:08.552Z,1007.01
2017-02-26T15:58:17.588Z,1007.02
2017-02-26T15:59:27.059Z,1007.05
2017-02-26T16:00:36.052Z,1007.03
2017-02-26T16:01:45.450Z,1007.06
2017-02-26T16:02:54.419Z,1007.07
2017-02-26T16:04:04.587Z,1007.15
2017-02-26T16:05:14.480Z,1007.08
2017-02-26T16:06:23.384Z,1007.15
2017-02-26T16:07:32.594Z,1007.15
2017-02-26T16:08:41.591Z,1007.13
2017-02-26T16:09:50.795Z,1007.19
2017-02-26T16:10:59.806Z,1007.18
2017-02-26T16:12:08.804Z,1007.21
2017-02-26T16:13:18.714Z,1007.16
2017-02-26T16:14:28.397Z,1007.16
2017-02-26T16:15:37.309Z,1007.16
2017-02-26T16:16:46.200Z,1007.2
2017-02-26T16:17:55.088Z,1007.14
2017-02-26T16:19:03.972Z,1007.15
2017-02-26T16:20:12.893Z,1007.12
2017-02-26T16:21:21.783Z,1007.13
2017-02-26T16:22:30.685Z,1007.16
2017-02-26T16:23:39.574Z,1007.15
2017-02-26T16:24:48.499Z,1007.18
2017-02-26T16:25:57.388Z,1007.14
2017-02-26T16:27:06.287Z,1007.17
2017-02-26T16:28:15.201Z,1007.18
2017-02-26T16:29:24.096Z,1007.19
2017-02-26T16:30:33.003Z,1007.19
2017-02-26T16:31:41.944Z,1007.16
2017-02-26T16:32:50.866Z,1007.21
2017-02-26T16:33:59.783Z,1007.22
2017-02-26T16:35:08.668Z,1007.23
2017-02-26T16:36:17.559Z,1007.26
2017-02-26T16:37:26.465Z,1007.29
2017-02-26T16:38:35.356Z,1007.3
2017-02-26T16:39:44.252Z,1007.28
2017-02-26T16:40:53.144Z,1007.27
2017-02-26T16:42:02.033Z,1007.28
2017-02-26T16:43:10.925Z,1007.27
2017-02-26T16:44:19.816Z,1007.27
2017-02-26T16:45:28.699Z,1007.29
2017-02-26T16:46:37.601Z,1007.3
2017-02-26T16:47:46.505Z,1007.32
2017-02-26T16:48:55.384Z,1007.32
2017-02-26T16:50:04.271Z,1007.32
2017-02-26T16:51:13.161Z,1007.34
2017-02-26T16:52:22.090Z,1007.37
2017-02-26T16:53:31.007Z,1007.39
2017-02-26T16:54:39.892Z,1007.42
2017-02-26T16:55:49.186Z,1007.42
2017-02-26T16:56:58.087Z,1007.43
2017-02-26T16:58:06.985Z,1007.45
2017-02-26T16:59:16.276Z,1007.46
2017-02-26T17:00:25.580Z,1007.45
2017-02-26T17:01:34.493Z,1007.46
2017-02-26T17:02:43.408Z,1007.5
2017-02-26T17:03:52.303Z,1007.5
2017-02-26T17:05:01.212Z,1007.52
2017-02-26T17:06:10.134Z,1007.48
2017-02-26T17:07:19.032Z,1007.55
2017-02-26T17:08:27.934Z,1007.5
2017-02-26T17:09:36.824Z,1007.53
2017-02-26T17:10:45.702Z,1007.51
2017-02-26T17:11:54.582Z,1007.46
2017-02-26T17:13:03.487Z,1007.47
2017-02-26T17:14:12.401Z,1007.49
2017-02-26T17:15:21.299Z,1007.52
2017-02-26T17:16:30.185Z,1007.57
2017-02-26T17:17:39.081Z,1007.54
2017-02-26T17:18:47.973Z,1007.57
2017-02-26T17:19:56.850Z,1007.6
2017-02-26T17:21:05.767Z,1007.62
2017-02-26T17:22:14.671Z,1007.63
2017-02-26T17:23:23.570Z,1007.61
2017-02-26T17:24:32.524Z,1007.6
2017-02-26T17:25:41.423Z,1007.6
2017-02-26T17:26:50.314Z,1007.63
2017-02-26T17:27:59.196Z,1007.67
2017-02-26T17:29:08.096Z,1007.71
2017-02-26T17:30:16.979Z,1007.72
2017-02-26T17:31:25.870Z,1007.72
2017-02-26T17:32:34.750Z,1007.79
2017-02-26T17:33:43.657Z,1007.79
2017-02-26T17:34:52.554Z,1007.78
2017-02-26T17:36:01.478Z,1007.84
2017-02-26T17:37:10.380Z,1007.84
2017-02-26T17:38:19.261Z,1007.84
2017-02-26T17:39:28.166Z,1007.86
2017-02-26T17:40:38.245Z,1007.85
2017-02-26T17:41:47.123Z,1007.9
2017-02-26T17:42:56.058Z,1007.88
2017-02-26T17:44:04.950Z,1007.88
2017-02-26T17:45:13.835Z,1007.87
2017-02-26T17:46:22.754Z,1007.84
2017-02-26T17:47:31.912Z,1007.87
2017-02-26T17:48:41.982Z,1007.85
2017-02-26T17:49:50.872Z,1007.86
2017-02-26T17:50:59.758Z,1007.87
2017-02-26T17:52:08.646Z,1007.9
2017-02-26T17:53:17.551Z,1007.92
2017-02-26T17:54:26.461Z,1007.89
2017-02-26T17:55:35.364Z,1007.92
2017-02-26T17:56:44.252Z,1007.94
2017-02-26T17:57:53.141Z,1007.94
2017-02-26T17:59:02.427Z,1007.99
2017-02-26T18:00:11.374Z,1008.01
2017-02-26T18:01:20.281Z,1008
2017-02-26T18:02:29.178Z,1007.97
2017-02-26T18:03:38.084Z,1008.04
2017-02-26T18:04:46.967Z,1008.01
2017-02-26T18:05:55.863Z,1007.99
2017-02-26T18:07:04.742Z,1008
2017-02-26T18:08:13.637Z,1008.02
2017-02-26T18:09:22.549Z,1008.03
2017-02-26T18:10:31.439Z,1008.06
2017-02-26T18:11:40.351Z,1008.08
2017-02-26T18:12:49.273Z,1008.05
2017-02-26T18:13:58.200Z,1008.06
2017-02-26T18:15:07.081Z,1008
2017-02-26T18:16:16.394Z,1008
2017-02-26T18:17:25.297Z,1008.03
2017-02-26T18:18:34.182Z,1008.01
2017-02-26T18:19:43.068Z,1008.02
2017-02-26T18:20:51.959Z,1008.02
2017-02-26T18:22:00.864Z,1008.05
2017-02-26T18:23:09.854Z,1008.01
2017-02-26T18:24:18.762Z,1007.98
2017-02-26T18:25:27.663Z,1007.98
2017-02-26T18:26:36.558Z,1007.98
2017-02-26T18:27:45.452Z,1007.99
2017-02-26T18:28:54.357Z,1008
2017-02-26T18:30:03.257Z,1008.01
2017-02-26T18:31:12.160Z,1008.03
2017-02-26T18:32:21.084Z,1008.01
2017-02-26T18:33:29.974Z,1008.04
2017-02-26T18:34:38.870Z,1008.05
2017-02-26T18:35:47.786Z,1008.08
2017-02-26T18:36:56.680Z,1008.08
2017-02-26T18:38:05.572Z,1008.12
2017-02-26T18:39:14.486Z,1008.1
2017-02-26T18:40:23.383Z,1008.03
2017-02-26T18:41:32.269Z,1008.02
2017-02-26T18:42:41.165Z,1008
2017-02-26T18:43:50.449Z,1008
2017-02-26T18:44:59.742Z,1007.97
2017-02-26T18:46:08.642Z,1008.03
2017-02-26T18:47:17.560Z,1008
2017-02-26T18:48:26.855Z,1008
2017-02-26T18:49:35.751Z,1007.96
2017-02-26T18:50:44.636Z,1007.98
2017-02-26T18:51:53.526Z,1008
2017-02-26T18:53:02.435Z,1008.01
2017-02-26T18:54:11.325Z,1007.98
2017-02-26T18:55:20.244Z,1008
2017-02-26T18:56:29.127Z,1007.99
2017-02-26T18:57:38.017Z,1007.99
2017-02-26T18:58:46.957Z,1007.95
2017-02-26T18:59:55.871Z,1007.94
2017-02-26T19:01:04.756Z,1007.94
2017-02-26T19:02:13.677Z,1007.89
2017-02-26T19:03:22.576Z,1007.94
2017-02-26T19:04:31.468Z,1007.97
2017-02-26T19:05:40.358Z,1008
2017-02-26T19:06:49.250Z,1007.99
2017-02-26T19:07:58.134Z,1007.98
2017-02-26T19:09:07.066Z,1007.96
2017-02-26T19:10:15.982Z,1007.95
2017-02-26T19:11:24.880Z,1007.98
2017-02-26T19:12:33.798Z,1007.96
2017-02-26T19:13:42.693Z,1007.97
2017-02-26T19:14:51.596Z,1007.99
2017-02-26T19:16:00.493Z,1007.97
2017-02-26T19:17:09.381Z,1008.01
2017-02-26T19:18:18.301Z,1008.02
2017-02-26T19:19:27.223Z,1008.04
2017-02-26T19:20:36.126Z,1008.02
2017-02-26T19:21:45.040Z,1007.96
2017-02-26T19:22:53.938Z,1007.9
2017-02-26T19:24:02.850Z,1007.88
2017-02-26T19:25:11.760Z,1007.89
2017-02-26T19:26:20.762Z,1007.96
2017-02-26T19:27:30.623Z,1007.95
2017-02-26T19:28:43.508Z,1007.97
2017-02-26T19:29:53.627Z,1007.95
2017-02-26T19:31:02.871Z,1007.98
2017-02-26T19:32:12.220Z,1008
2017-02-26T19:33:22.023Z,1007.94
2017-02-26T19:34:30.926Z,1007.97
2017-02-26T19:35:39.893Z,1007.98
2017-02-26T19:36:48.834Z,1007.97
2017-02-26T19:37:57.830Z,1007.93
2017-02-26T19:39:06.957Z,1007.95
2017-02-26T19:40:15.841Z,1007.96
2017-02-26T19:41:25.021Z,1008.03
2017-02-26T19:42:33.916Z,1008.03
2017-02-26T19:43:42.820Z,1008.03
2017-02-26T19:44:51.729Z,1008.13
2017-02-26T19:46:00.672Z,1008.05
2017-02-26T19:47:09.917Z,1008.1
2017-02-26T19:48:18.819Z,1008.07
2017-02-26T19:49:27.710Z,1008.11
2017-02-26T19:50:36.669Z,1008.13
2017-02-26T19:51:45.647Z,1008.13
2017-02-26T19:52:54.793Z,1008.16
2017-02-26T19:54:03.773Z,1008.18
2017-02-26T19:55:12.768Z,1008.15
2017-02-26T19:56:22.143Z,1008.19
2017-02-26T19:57:31.498Z,1008.24
2017-02-26T19:58:40.551Z,1008.19
2017-02-26T19:59:49.538Z,1008.19
2017-02-26T20:00:58.440Z,1008.2
2017-02-26T20:02:07.354Z,1008.21
2017-02-26T20:03:16.245Z,1008.13
2017-02-26T20:04:25.152Z,1008.16
2017-02-26T20:05:34.062Z,1008.19
2017-02-26T20:06:43.386Z,1008.14
2017-02-26T20:07:52.280Z,1008.17
2017-02-26T20:09:01.209Z,1008.14
2017-02-26T20:10:10.105Z,1008.13
2017-02-26T20:11:18.988Z,1008.14
2017-02-26T20:12:27.881Z,1008.1
2017-02-26T20:13:36.815Z,1008.09
2017-02-26T20:14:45.704Z,1008.07
2017-02-26T20:15:54.605Z,1008.07
2017-02-26T20:17:03.514Z,1008.02
2017-02-26T20:18:12.415Z,1008.09
2017-02-26T20:19:21.332Z,1008.07
2017-02-26T20:20:30.248Z,1008.15
2017-02-26T20:21:39.130Z,1008.11
2017-02-26T20:22:48.033Z,1008.16
2017-02-26T20:23:56.938Z,1008.14
2017-02-26T20:25:05.863Z,1008.1
2017-02-26T20:26:14.751Z,1008.07
2017-02-26T20:27:23.667Z,1008.03
2017-02-26T20:28:32.770Z,1008.04
2017-02-26T20:29:41.742Z,1008.04
2017-02-26T20:30:50.849Z,1008.01
2017-02-26T20:31:59.857Z,1008.06
2017-02-26T20:33:08.933Z,1008.06
2017-02-26T20:34:17.854Z,1008.07
2017-02-26T20:35:26.867Z,1008.04
2017-02-26T20:36:36.494Z,1008
2017-02-26T20:37:46.187Z,1007.99
2017-02-26T20:38:55.859Z,1007.94
2017-02-26T20:40:10.649Z,1007.92
2017-02-26T20:41:20.860Z,1007.97
2017-02-26T20:42:29.751Z,1007.96
2017-02-26T20:43:38.773Z,1007.95
2017-02-26T20:44:48.592Z,1007.9
2017-02-26T20:45:57.690Z,1007.91
2017-02-26T20:47:06.690Z,1007.9
2017-02-26T20:48:15.574Z,1007.9
2017-02-26T20:49:24.828Z,1007.93
2017-02-26T20:50:33.873Z,1007.89
2017-02-26T20:51:42.766Z,1007.84
2017-02-26T20:52:51.683Z,1007.88
2017-02-26T20:54:00.612Z,1007.86
2017-02-26T20:55:10.268Z,1007.9
2017-02-26T20:56:19.415Z,1007.91
2017-02-26T20:57:28.324Z,1007.92
2017-02-26T20:58:38.001Z,1007.89
2017-02-26T20:59:47.164Z,1007.89
2017-02-26T21:00:56.059Z,1007.86
2017-02-26T21:02:04.952Z,1007.88
2017-02-26T21:03:13.849Z,1007.84
2017-02-26T21:04:22.730Z,1007.86
2017-02-26T21:05:31.724Z,1007.84
2017-02-26T21:06:40.789Z,1007.86
2017-02-26T21:07:50.328Z,1007.84
2017-02-26T21:08:59.293Z,1007.87
2017-02-26T21:10:08.230Z,1007.82
2017-02-26T21:11:17.153Z,1007.84
2017-02-26T21:12:26.151Z,1007.82
2017-02-26T21:13:35.128Z,1007.85
2017-02-26T21:14:44.325Z,1007.79
2017-02-26T21:15:53.209Z,1007.8
2017-02-26T21:17:02.119Z,1007.84
2017-02-26T21:18:11.112Z,1007.78
2017-02-26T21:19:20.799Z,1007.78
2017-02-26T21:20:30.069Z,1007.76
2017-02-26T21:21:39.096Z,1007.7
2017-02-26T21:22:48.295Z,1007.73
2017-02-26T21:23:57.177Z,1007.75
2017-02-26T21:25:06.232Z,1007.71
2017-02-26T21:26:15.145Z,1007.69
2017-02-26T21:27:24.469Z,1007.69
2017-02-26T21:28:34.281Z,1007.72
2017-02-26T21:29:43.192Z,1007.73
2017-02-26T21:30:52.125Z,1007.72
2017-02-26T21:32:01.136Z,1007.71
2017-02-26T21:33:10.056Z,1007.7
2017-02-26T21:34:20.326Z,1007.7
2017-02-26T21:35:29.264Z,1007.71
2017-02-26T21:36:38.464Z,1007.71
2017-02-26T21:37:47.638Z,1007.67
2017-02-26T21:38:56.589Z,1007.66
2017-02-26T21:40:05.506Z,1007.61
2017-02-26T21:41:14.411Z,1007.63
2017-02-26T21:42:23.312Z,1007.62
2017-02-26T21:43:32.859Z,1007.61
2017-02-26T21:44:42.831Z,1007.67
2017-02-26T21:45:52.863Z,1007.63
2017-02-26T21:47:01.765Z,1007.63
2017-02-26T21:48:10.666Z,1007.67
2017-02-26T21:49:19.653Z,1007.63
2017-02-26T21:50:28.579Z,1007.63
2017-02-26T21:51:37.477Z,1007.63
2017-02-26T21:52:46.387Z,1007.63
2017-02-26T21:53:55.332Z,1007.67
2017-02-26T21:55:04.242Z,1007.68
2017-02-26T21:56:13.193Z,1007.62
2017-02-26T21:57:22.086Z,1007.62
2017-02-26T21:58:30.985Z,1007.66
2017-02-26T21:59:39.880Z,1007.63
2017-02-26T22:00:48.775Z,1007.65
2017-02-26T22:01:57.732Z,1007.62
2017-02-26T22:03:06.781Z,1007.56
2017-02-26T22:04:16.786Z,1007.58
2017-02-26T22:05:25.752Z,1007.59
2017-02-26T22:06:35.036Z,1007.58
2017-02-26T22:07:43.922Z,1007.59
2017-02-26T22:08:52.806Z,1007.6
2017-02-26T22:10:02.120Z,1007.61
2017-02-26T22:11:11.053Z,1007.62
2017-02-26T22:12:19.949Z,1007.59
2017-02-26T22:13:29.086Z,1007.66
2017-02-26T22:14:38.130Z,1007.63
2017-02-26T22:15:47.027Z,1007.64
2017-02-26T22:16:56.338Z,1007.65
2017-02-26T22:18:05.224Z,1007.66
2017-02-26T22:19:14.139Z,1007.66
2017-02-26T22:20:23.046Z,1007.67
2017-02-26T22:21:31.938Z,1007.65
2017-02-26T22:22:40.847Z,1007.65
2017-02-26T22:23:49.829Z,1007.64
2017-02-26T22:24:59.059Z,1007.57
2017-02-26T22:26:08.495Z,1007.61
2017-02-26T22:27:18.240Z,1007.62
2017-02-26T22:28:29.250Z,1007.61
2017-02-26T22:29:38.620Z,1007.6
2017-02-26T22:30:48.068Z,1007.64
2017-02-26T22:31:57.960Z,1007.6
2017-02-26T22:33:07.736Z,1007.6
2017-02-26T22:34:17.536Z,1007.61
2017-02-26T22:35:26.438Z,1007.61
2017-02-26T22:36:35.521Z,1007.58
2017-02-26T22:37:44.570Z,1007.6
2017-02-26T22:38:53.465Z,1007.56
2017-02-26T22:40:02.408Z,1007.54
2017-02-26T22:41:11.390Z,1007.57
2017-02-26T22:42:20.314Z,1007.59
2017-02-26T22:43:29.192Z,1007.57
2017-02-26T22:44:38.096Z,1007.56
2017-02-26T22:45:47.006Z,1007.55
2017-02-26T22:46:55.921Z,1007.53
2017-02-26T22:48:04.837Z,1007.56
2017-02-26T22:49:13.721Z,1007.5
2017-02-26T22:50:22.607Z,1007.51
2017-02-26T22:51:31.505Z,1007.54
2017-02-26T22:52:40.431Z,1007.54
2017-02-26T22:53:49.330Z,1007.54
2017-02-26T22:54:58.219Z,1007.52
2017-02-26T22:56:07.120Z,1007.58
2017-02-26T22:57:16.004Z,1007.55
2017-02-26T22:58:24.896Z,1007.54
2017-02-26T22:59:33.810Z,1007.5
2017-02-26T23:00:42.706Z,1007.53
2017-02-26T23:01:51.586Z,1007.54
2017-02-26T23:03:00.475Z,1007.56
2017-02-26T23:04:09.358Z,1007.57
2017-02-26T23:05:18.270Z,1007.55
2017-02-26T23:06:27.163Z,1007.61
2017-02-26T23:07:36.080Z,1007.58
2017-02-26T23:08:44.963Z,1007.54
2017-02-26T23:09:53.878Z,1007.56
2017-02-26T23:11:02.802Z,1007.53
2017-02-26T23:12:11.707Z,1007.51
2017-02-26T23:13:21.006Z,1007.5
2017-02-26T23:14:29.900Z,1007.52
2017-02-26T23:15:38.789Z,1007.51
2017-02-26T23:16:47.685Z,1007.53
2017-02-26T23:17:56.575Z,1007.48
2017-02-26T23:19:05.472Z,1007.47
2017-02-26T23:20:14.360Z,1007.49
2017-02-26T23:21:23.237Z,1007.42
2017-02-26T23:22:32.140Z,1007.37
2017-02-26T23:23:41.026Z,1007.37
2017-02-26T23:24:49.935Z,1007.32
2017-02-26T23:25:58.814Z,1007.31
2017-02-26T23:27:07.737Z,1007.31
2017-02-26T23:28:16.612Z,1007.3
2017-02-26T23:29:25.496Z,1007.29
2017-02-26T23:30:34.410Z,1007.32
2017-02-26T23:31:43.287Z,1007.34
2017-02-26T23:32:52.209Z,1007.37
2017-02-26T23:34:01.107Z,1007.38
2017-02-26T23:35:10.037Z,1007.37
2017-02-26T23:36:18.917Z,1007.41
2017-02-26T23:37:27.817Z,1007.38
2017-02-26T23:38:36.710Z,1007.35
2017-02-26T23:39:45.595Z,1007.33
2017-02-26T23:40:54.517Z,1007.32
2017-02-26T23:42:03.411Z,1007.33
2017-02-26T23:43:12.313Z,1007.38
2017-02-26T23:44:21.223Z,1007.31
2017-02-26T23:45:30.112Z,1007.35
2017-02-26T23:46:39.016Z,1007.36
2017-02-26T23:47:47.913Z,1007.37
2017-02-26T23:48:56.798Z,1007.36
2017-02-26T23:50:05.693Z,1007.37
2017-02-26T23:51:14.587Z,1007.34
2017-02-26T23:52:23.496Z,1007.33
2017-02-26T23:53:32.396Z,1007.37
2017-02-26T23:54:41.453Z,1007.41
2017-02-26T23:55:50.353Z,1007.41
2017-02-26T23:56:59.236Z,1007.4
2017-02-26T23:58:08.159Z,1007.4
2017-02-26T23:59:17.700Z,1007.37
